Time;durP1;ratioP1;P1;durP2;ratioP2;P2;SDS_P1;SDS_P2;PMS_P1;PMS_P2;Temp;Humidity;BMP_temperature;BMP_pressure;BME280_temperature;BME280_humidity;BME280_pressure;Samples;Min_cycle;Max_cycle;Signal;HPM_P1;HPM_P2
2024/03/28 00:01:43;;;;;;;;;;;;;;;4.54;100.00;93905.47;5087199;28;19957;-74
2024/03/28 00:04:09;;;;;;;;;;;;;;;4.55;100.00;93914.03;5087198;28;19935;-73
2024/03/28 00:06:35;;;;;;;;;;;;;;;4.55;100.00;93919.22;5087080;28;19950;-73
2024/03/28 00:09:00;;;;;;;;;;;;;;;4.54;100.00;93918.44;5087034;28;19951;-73
2024/03/28 00:11:26;;;;;;;;;;;;;;;4.54;100.00;93928.03;5087238;28;20285;-72
2024/03/28 00:13:52;;;;;;;;;;;;;;;4.53;100.00;93923.84;5086998;28;19946;-66
2024/03/28 00:16:18;;;;;;;;;;;;;;;4.51;100.00;93924.09;5087760;28;19941;-67
2024/03/28 00:18:44;;;;;;;;;;;;;;;4.52;100.00;93937.88;5086928;28;19962;-67
2024/03/28 00:21:10;;;;;;;;;;;;;;;4.48;100.00;93929.78;5086853;28;19943;-67
2024/03/28 00:23:36;;;;;;;;;;;;;;;4.47;100.00;93931.59;5086882;28;19936;-67
2024/03/28 00:26:02;;;;;;;;;;;;;;;4.44;100.00;93931.28;5087202;28;19958;-67
2024/03/28 00:28:27;;;;;;;;;;;;;;;4.41;100.00;93922.19;5086715;28;20012;-66
2024/03/28 00:30:53;;;;;;;;;;;;;;;4.42;100.00;93925.56;5086983;28;19932;-73
2024/03/28 00:33:19;;;;;;;;;;;;;;;4.40;100.00;93920.59;5087427;28;19935;-73
2024/03/28 00:35:46;;;;;;;;;;;;;;;4.39;100.00;93926.00;5086604;28;20248;-73
2024/03/28 00:38:13;;;;;;;;;;;;;;;4.37;100.00;93917.72;5087128;28;20104;-73
2024/03/28 00:40:48;;;;;;;;;;;;;;;4.34;100.00;93928.56;5087340;28;19941;-73
2024/03/28 00:43:14;;;;;;;;;;;;;;;4.31;100.00;93926.47;5086133;28;19934;-73
2024/03/28 00:45:40;;;;;;;;;;;;;;;4.27;100.00;93919.16;5086352;28;19947;-74
2024/03/28 00:48:07;;;;;;;;;;;;;;;4.26;100.00;93916.78;5086649;28;20214;-73
2024/03/28 00:50:33;;;;;;;;;;;;;;;4.23;100.00;93918.06;5086911;28;19924;-74
2024/03/28 00:52:59;;;;;;;;;;;;;;;4.22;100.00;93913.09;5086325;28;19942;-74
2024/03/28 00:55:25;;;;;;;;;;;;;;;4.19;100.00;93903.22;5086299;28;19979;-75
2024/03/28 00:57:51;;;;;;;;;;;;;;;4.17;100.00;93908.63;5086216;28;20010;-75
2024/03/28 01:00:17;;;;;;;;;;;;;;;4.15;100.00;93892.53;5086226;28;19942;-75
2024/03/28 01:02:43;;;;;;;;;;;;;;;4.12;100.00;93889.66;5085040;28;19931;-75
2024/03/28 01:05:09;;;;;;;;;;;;;;;4.10;100.00;93895.06;5086076;28;19952;-76
2024/03/28 01:07:35;;;;;;;;;;;;;;;4.05;100.00;93898.38;5086588;28;19927;-66
2024/03/28 01:10:01;;;;;;;;;;;;;;;4.03;100.00;93905.63;5085366;28;20219;-72
2024/03/28 01:12:27;;;;;;;;;;;;;;;3.99;100.00;93901.94;5085902;28;19939;-72
2024/03/28 01:14:53;;;;;;;;;;;;;;;3.98;100.00;93907.34;5086683;28;19943;-73
2024/03/28 01:17:18;;;;;;;;;;;;;;;3.96;100.00;93901.63;5085829;28;19978;-73
2024/03/28 01:19:44;;;;;;;;;;;;;;;3.94;100.00;93886.28;5086327;28;19953;-73
2024/03/28 01:22:10;;;;;;;;;;;;;;;3.92;100.00;93887.56;5086323;28;19933;-73
2024/03/28 01:24:36;;;;;;;;;;;;;;;3.88;100.00;93889.06;5085704;28;20287;-73
2024/03/28 01:27:03;;;;;;;;;;;;;;;3.84;100.00;93875.78;5085664;28;19952;-66
2024/03/28 01:29:29;;;;;;;;;;;;;;;3.79;100.00;93891.28;5085616;28;19940;-66
2024/03/28 01:31:55;;;;;;;;;;;;;;;3.74;100.00;93876.44;5085518;28;19950;-66
2024/03/28 01:34:21;;;;;;;;;;;;;;;3.70;100.00;93883.13;5085533;28;19934;-66
2024/03/28 01:36:47;;;;;;;;;;;;;;;3.65;100.00;93878.66;5085991;28;19954;-66
2024/03/28 01:39:12;;;;;;;;;;;;;;;3.61;100.00;93880.16;5086210;28;20021;-66
2024/03/28 01:41:38;;;;;;;;;;;;;;;3.57;100.00;93878.25;5085396;28;19938;-74
2024/03/28 01:44:04;;;;;;;;;;;;;;;3.53;100.00;93861.63;5085778;28;20214;-67
2024/03/28 01:46:31;;;;;;;;;;;;;;;3.48;100.00;93869.31;5085130;28;20236;-74
2024/03/28 01:48:57;;;;;;;;;;;;;;;3.42;100.00;93871.06;5085932;28;20219;-75
2024/03/28 01:51:23;;;;;;;;;;;;;;;3.37;100.00;93868.38;5085110;28;19932;-75
2024/03/28 01:53:49;;;;;;;;;;;;;;;3.32;100.00;93869.09;5085053;28;19933;-75
2024/03/28 01:56:17;;;;;;;;;;;;;;;3.29;100.00;93874.75;5084851;28;19939;-75
2024/03/28 01:58:43;;;;;;;;;;;;;;;3.22;100.00;93872.31;5085514;28;19938;-75
2024/03/28 02:01:09;;;;;;;;;;;;;;;3.19;100.00;93862.44;5085471;28;20126;-66
2024/03/28 02:03:36;;;;;;;;;;;;;;;3.16;100.00;93867.28;5083802;28;19933;-77
2024/03/28 02:06:02;;;;;;;;;;;;;;;3.10;100.00;93866.41;5084403;28;19952;-77
2024/03/28 02:08:28;;;;;;;;;;;;;;;3.07;100.00;93861.72;5084925;28;19957;-77
2024/03/28 02:10:55;;;;;;;;;;;;;;;3.03;100.00;93858.81;5084745;28;20131;-78
2024/03/28 02:13:21;;;;;;;;;;;;;;;3.01;100.00;93860.06;5084925;28;19937;-77
2024/03/28 02:15:46;;;;;;;;;;;;;;;2.98;100.00;93863.09;5084699;28;19960;-77
2024/03/28 02:18:12;;;;;;;;;;;;;;;2.96;100.00;93871.13;5084628;28;19938;-68
2024/03/28 02:20:38;;;;;;;;;;;;;;;2.95;100.00;93864.38;5084664;28;19943;-73
2024/03/28 02:23:04;;;;;;;;;;;;;;;2.92;100.00;93862.25;5084518;28;19942;-77
2024/03/28 02:25:30;;;;;;;;;;;;;;;2.91;100.00;93862.47;5084729;28;20022;-77
2024/03/28 02:27:55;;;;;;;;;;;;;;;2.89;100.00;93854.16;5084490;28;19946;-77
2024/03/28 02:30:21;;;;;;;;;;;;;;;2.87;100.00;93866.56;5084407;28;20002;-76
2024/03/28 02:32:47;;;;;;;;;;;;;;;2.84;100.00;93866.00;5084981;28;19934;-77
2024/03/28 02:35:13;;;;;;;;;;;;;;;2.84;100.00;93868.59;5084114;28;20161;-77
2024/03/28 02:37:39;;;;;;;;;;;;;;;2.84;100.00;93878.94;5084874;28;19942;-75
2024/03/28 02:40:05;;;;;;;;;;;;;;;2.87;100.00;93884.66;5084287;28;19933;-76
2024/03/28 02:42:31;;;;;;;;;;;;;;;2.84;100.00;93894.47;5083899;28;19944;-76
2024/03/28 02:44:56;;;;;;;;;;;;;;;2.84;100.00;93891.09;5084908;28;20097;-76
2024/03/28 02:47:22;;;;;;;;;;;;;;;2.87;100.00;93888.03;5084248;28;19937;-77
2024/03/28 02:49:48;;;;;;;;;;;;;;;2.87;100.00;93879.50;5084163;28;19934;-77
2024/03/28 02:52:14;;;;;;;;;;;;;;;2.84;100.00;93884.13;5084141;28;19938;-78
2024/03/28 02:54:40;;;;;;;;;;;;;;;2.82;100.00;93887.97;5084157;28;20014;-77
2024/03/28 02:57:06;;;;;;;;;;;;;;;2.80;100.00;93887.41;5083906;28;19960;-75
2024/03/28 02:59:31;;;;;;;;;;;;;;;2.75;100.00;93877.75;5084023;28;19979;-73
2024/03/28 03:01:57;;;;;;;;;;;;;;;2.72;100.00;93885.19;5084001;28;20274;-74
2024/03/28 03:04:23;;;;;;;;;;;;;;;2.69;100.00;93877.88;5083997;28;20018;-73
2024/03/28 03:06:49;;;;;;;;;;;;;;;2.67;100.00;93875.53;5083996;28;20028;-74
2024/03/28 03:09:15;;;;;;;;;;;;;;;2.63;100.00;93864.88;5083920;28;19952;-74
2024/03/28 03:11:41;;;;;;;;;;;;;;;2.61;100.00;93861.72;5084725;28;19979;-74
2024/03/28 03:14:07;;;;;;;;;;;;;;;2.57;100.00;93852.06;5084115;28;19967;-75
2024/03/28 03:16:33;;;;;;;;;;;;;;;2.55;100.00;93854.09;5084434;28;19929;-73
2024/03/28 03:18:59;;;;;;;;;;;;;;;2.52;100.00;93852.78;5082635;28;20203;-73
2024/03/28 03:21:25;;;;;;;;;;;;;;;2.50;100.00;93865.16;5083875;28;20056;-73
2024/03/28 03:24:00;;;;;;;;;;;;;;;2.49;100.00;93858.41;5083826;28;19933;-73
2024/03/28 03:26:30;;;;;;;;;;;;;;;2.46;100.00;93858.06;5084576;28;19951;-73
2024/03/28 03:34:37;;;;;;;;;;;;;;;2.35;100.00;93865.66;5083325;28;19948;-67
2024/03/28 03:37:03;;;;;;;;;;;;;;;2.33;100.00;93870.28;5084235;28;20122;-74
2024/03/28 03:39:29;;;;;;;;;;;;;;;2.30;100.00;93867.34;5083684;28;20221;-74
2024/03/28 03:41:56;;;;;;;;;;;;;;;2.27;100.00;93870.38;5084141;28;19944;-75
2024/03/28 03:44:21;;;;;;;;;;;;;;;2.23;100.00;93859.72;5083618;28;19936;-74
2024/03/28 03:46:47;;;;;;;;;;;;;;;2.19;100.00;93861.97;5083474;28;19961;-75
2024/03/28 03:49:13;;;;;;;;;;;;;;;2.16;100.00;93862.44;5084411;28;19942;-75
2024/03/28 03:51:39;;;;;;;;;;;;;;;2.13;100.00;93852.56;5083569;28;20173;-76
2024/03/28 03:54:05;;;;;;;;;;;;;;;2.11;100.00;93848.63;5083420;28;19937;-75
2024/03/28 03:56:31;;;;;;;;;;;;;;;2.09;100.00;93838.50;5084046;28;19965;-75
2024/03/28 03:58:56;;;;;;;;;;;;;;;2.07;100.00;93832.78;5083184;28;19945;-76
2024/03/28 04:01:23;;;;;;;;;;;;;;;2.05;100.00;93828.88;5083469;28;19997;-76
2024/03/28 04:03:49;;;;;;;;;;;;;;;2.03;100.00;93837.63;5083423;28;19934;-77
2024/03/28 04:06:15;;;;;;;;;;;;;;;2.00;100.00;93825.16;5084116;28;19949;-78
2024/03/28 04:08:41;;;;;;;;;;;;;;;1.98;100.00;93823.84;5083347;28;19949;-74
2024/03/28 04:11:07;;;;;;;;;;;;;;;1.96;100.00;93816.31;5083429;28;20130;-67
2024/03/28 04:13:33;;;;;;;;;;;;;;;1.94;100.00;93802.81;5083286;28;20124;-72
2024/03/28 04:15:59;;;;;;;;;;;;;;;1.93;100.00;93813.38;5082388;28;19945;-72
2024/03/28 04:18:25;;;;;;;;;;;;;;;1.93;100.00;93810.78;5085635;28;19939;-71
2024/03/28 04:20:50;;;;;;;;;;;;;;;1.91;100.00;93799.91;5086819;28;20121;-71
2024/03/28 04:23:16;;;;;;;;;;;;;;;1.90;100.00;93806.09;5086867;28;19934;-71
2024/03/28 04:25:42;;;;;;;;;;;;;;;1.90;100.00;93812.03;5085658;28;19951;-72
2024/03/28 04:28:08;;;;;;;;;;;;;;;1.87;100.00;93804.75;5087312;28;19934;-72
2024/03/28 04:30:35;;;;;;;;;;;;;;;1.87;100.00;93806.53;5087495;28;19937;-74
2024/03/28 04:33:02;;;;;;;;;;;;;;;1.86;100.00;93808.34;5085523;28;19939;-74
2024/03/28 04:35:28;;;;;;;;;;;;;;;1.85;100.00;93813.72;5087176;28;19933;-74
2024/03/28 04:37:54;;;;;;;;;;;;;;;1.82;100.00;93813.19;5086634;28;19955;-74
2024/03/28 04:40:20;;;;;;;;;;;;;;;1.80;100.00;93797.13;5086526;28;20012;-74
2024/03/28 04:42:50;;;;;;;;;;;;;;;1.76;100.00;93783.09;5086505;28;19942;-74
2024/03/28 04:45:17;;;;;;;;;;;;;;;1.73;100.00;93787.94;5087542;28;20091;-77
2024/03/28 04:47:44;;;;;;;;;;;;;;;1.70;100.00;93781.44;5086456;28;19937;-70
2024/03/28 04:50:10;;;;;;;;;;;;;;;1.69;100.00;93774.69;5086360;28;19937;-74
2024/03/28 04:52:36;;;;;;;;;;;;;;;1.69;100.00;93782.44;5086839;28;19935;-76
2024/03/28 04:55:02;;;;;;;;;;;;;;;1.70;100.00;93778.03;5086241;28;20004;-75
2024/03/28 04:57:28;;;;;;;;;;;;;;;1.68;100.00;93777.50;5086149;28;20249;-74
2024/03/28 04:59:53;;;;;;;;;;;;;;;1.68;100.00;93780.06;5086252;28;19975;-75
2024/03/28 05:02:19;;;;;;;;;;;;;;;1.66;100.00;93787.25;5087030;28;19935;-75
2024/03/28 05:04:45;;;;;;;;;;;;;;;1.65;100.00;93801.19;5086387;28;19935;-74
2024/03/28 05:07:11;;;;;;;;;;;;;;;1.65;100.00;93799.41;5068175;28;19959;-67
2024/03/28 05:09:37;;;;;;;;;;;;;;;1.63;100.00;93799.63;5086031;28;20017;-68
2024/03/28 05:12:03;;;;;;;;;;;;;;;1.62;100.00;93795.47;5085959;28;20155;-68
2024/03/28 05:14:30;;;;;;;;;;;;;;;1.62;100.00;93792.91;5086730;28;19944;-68
2024/03/28 05:16:55;;;;;;;;;;;;;;;1.58;100.00;93809.06;5086275;28;20227;-68
2024/03/28 05:19:21;;;;;;;;;;;;;;;1.56;100.00;93813.69;5086369;28;19936;-68
2024/03/28 05:21:47;;;;;;;;;;;;;;;1.57;100.00;93810.06;5085796;28;19938;-66
2024/03/28 05:24:13;;;;;;;;;;;;;;;1.57;100.00;93810.06;5085808;28;19942;-76
2024/03/28 05:26:39;;;;;;;;;;;;;;;1.57;100.00;93813.44;5086426;28;19964;-72
2024/03/28 05:29:05;;;;;;;;;;;;;;;1.59;100.00;93823.53;5085313;28;19935;-71
2024/03/28 05:31:31;;;;;;;;;;;;;;;1.62;100.00;93823.13;5085574;28;19928;-70
2024/03/28 05:33:57;;;;;;;;;;;;;;;1.68;100.00;93816.22;5086047;28;19941;-71
2024/03/28 05:36:26;;;;;;;;;;;;;;;1.71;100.00;93813.22;5085502;28;19940;-71
2024/03/28 05:38:52;;;;;;;;;;;;;;;1.75;100.00;93819.50;5085383;28;19938;-70
2024/03/28 05:41:17;;;;;;;;;;;;;;;1.78;100.00;93814.63;5086193;28;20156;-79
2024/03/28 05:43:43;;;;;;;;;;;;;;;1.88;100.00;93808.13;5085313;28;19933;-74
2024/03/28 05:46:09;;;;;;;;;;;;;;;2.35;100.00;93801.00;5085175;28;19955;-76
2024/03/28 05:48:35;;;;;;;;;;;;;;;2.72;100.00;93803.16;5085217;28;19929;-76
2024/03/28 05:51:01;;;;;;;;;;;;;;;2.74;100.00;93790.78;5084053;28;20117;-77
2024/03/28 05:53:27;;;;;;;;;;;;;;;2.68;100.00;93794.31;5085078;28;19942;-76
2024/03/28 05:55:53;;;;;;;;;;;;;;;2.64;100.00;93799.16;5085278;28;19934;-76
2024/03/28 05:58:18;;;;;;;;;;;;;;;2.65;100.00;93799.97;5084879;28;19964;-77
2024/03/28 06:00:44;;;;;;;;;;;;;;;2.75;100.00;93809.69;5085018;28;19940;-73
2024/03/28 06:03:10;;;;;;;;;;;;;;;2.97;100.00;93822.72;5084904;28;19935;-79
2024/03/28 06:05:36;;;;;;;;;;;;;;;3.65;100.00;93808.69;5084844;28;19934;-78
2024/03/28 06:08:02;;;;;;;;;;;;;;;4.30;100.00;93784.81;5084770;28;20235;-77
2024/03/28 06:10:28;;;;;;;;;;;;;;;4.39;100.00;93770.34;5085335;28;19932;-78
2024/03/28 06:12:53;;;;;;;;;;;;;;;4.17;100.00;93770.41;5084751;28;19998;-78
2024/03/28 06:15:19;;;;;;;;;;;;;;;3.93;100.00;93769.91;5085461;28;19936;-79
2024/03/28 06:17:45;;;;;;;;;;;;;;;3.72;100.00;93780.00;5084595;28;20058;-72
2024/03/28 06:20:11;;;;;;;;;;;;;;;3.53;100.00;93799.44;5085402;28;19932;-66
2024/03/28 06:22:38;;;;;;;;;;;;;;;3.38;100.00;93800.00;5084580;28;20191;-73
2024/03/28 06:25:05;;;;;;;;;;;;;;;3.30;100.00;93824.53;5083198;28;19944;-73
2024/03/28 06:27:31;;;;;;;;;;;;;;;3.23;100.00;93824.69;5084367;28;19959;-72
2024/03/28 06:29:57;;;;;;;;;;;;;;;3.17;100.00;93822.25;5084413;28;20123;-73
2024/03/28 06:32:26;;;;;;;;;;;;;;;3.08;100.00;93816.69;5084399;28;19941;-71
2024/03/28 06:34:52;;;;;;;;;;;;;;;3.07;100.00;93835.84;5084254;28;19939;-72
2024/03/28 06:37:18;;;;;;;;;;;;;;;3.05;100.00;93825.69;5084279;28;19939;-76
2024/03/28 06:39:45;;;;;;;;;;;;;;;3.04;100.00;93837.09;5084294;28;19956;-75
2024/03/28 06:42:11;;;;;;;;;;;;;;;2.98;100.00;93843.22;5084576;28;19943;-74
2024/03/28 06:44:36;;;;;;;;;;;;;;;2.98;100.00;93848.38;5084193;28;19952;-74
2024/03/28 06:47:04;;;;;;;;;;;;;;;3.02;100.00;93853.84;5084092;28;19948;-74
2024/03/28 06:49:30;;;;;;;;;;;;;;;3.04;100.00;93851.81;5083977;28;19929;-75
2024/03/28 06:51:56;;;;;;;;;;;;;;;3.03;100.00;93863.22;5084775;28;20219;-74
2024/03/28 06:54:22;;;;;;;;;;;;;;;3.04;100.00;93875.94;5084654;28;19963;-71
2024/03/28 06:56:47;;;;;;;;;;;;;;;3.05;100.00;93867.13;5083908;28;19962;-71
2024/03/28 06:59:13;;;;;;;;;;;;;;;3.02;100.00;93875.38;5084045;28;19944;-74
2024/03/28 07:01:42;;;;;;;;;;;;;;;2.98;100.00;93878.63;5083641;28;20361;-75
2024/03/28 07:04:08;;;;;;;;;;;;;;;2.94;100.00;93873.16;5084001;28;19938;-74
2024/03/28 07:06:37;;;;;;;;;;;;;;;2.96;100.00;93854.78;5082777;28;19955;-75
2024/03/28 07:09:03;;;;;;;;;;;;;;;3.00;100.00;93837.78;5084170;28;19948;-74
2024/03/28 07:11:29;;;;;;;;;;;;;;;3.03;100.00;93838.09;5084539;28;19986;-74
2024/03/28 07:13:55;;;;;;;;;;;;;;;3.07;100.00;93845.38;5083997;28;19936;-74
2024/03/28 07:16:21;;;;;;;;;;;;;;;3.16;100.00;93869.88;5084004;28;20164;-75
2024/03/28 07:18:47;;;;;;;;;;;;;;;3.24;100.00;93864.31;5083926;28;19928;-76
2024/03/28 07:21:12;;;;;;;;;;;;;;;3.32;100.00;93874.28;5083855;28;19997;-75
2024/03/28 07:23:41;;;;;;;;;;;;;;;3.40;100.00;93879.06;5083035;28;19930;-76
2024/03/28 07:26:07;;;;;;;;;;;;;;;3.44;100.00;93884.56;5083771;28;19937;-76
2024/03/28 07:28:33;;;;;;;;;;;;;;;3.48;100.00;93903.78;5083782;28;19942;-75
2024/03/28 07:30:59;;;;;;;;;;;;;;;3.54;100.00;93894.28;5083738;28;19936;-66
2024/03/28 07:33:25;;;;;;;;;;;;;;;3.81;100.00;93889.25;5083841;28;19936;-79
2024/03/28 07:35:51;;;;;;;;;;;;;;;4.42;100.00;93871.84;5083703;28;20008;-66
2024/03/28 07:38:17;;;;;;;;;;;;;;;4.78;100.00;93871.44;5084560;28;19941;-65
2024/03/28 07:40:46;;;;;;;;;;;;;;;4.80;100.00;93859.78;5083654;28;20125;-66
2024/03/28 07:43:12;;;;;;;;;;;;;;;4.68;100.00;93866.91;5083719;28;20120;-66
2024/03/28 07:45:39;;;;;;;;;;;;;;;4.60;100.00;93894.09;5084456;28;20205;-65
2024/03/28 07:48:06;;;;;;;;;;;;;;;4.52;100.00;93922.31;5083481;28;20247;-65
2024/03/28 07:50:32;;;;;;;;;;;;;;;4.48;100.00;93951.31;5083571;28;19942;-74
2024/03/28 07:52:58;;;;;;;;;;;;;;;4.44;100.00;93944.25;5087629;28;19931;-74
2024/03/28 07:55:24;;;;;;;;;;;;;;;4.34;100.00;93950.09;5087342;28;19935;-74
2024/03/28 07:57:51;;;;;;;;;;;;;;;4.27;100.00;93978.03;5087134;28;20026;-74
2024/03/28 08:00:17;;;;;;;;;;;;;;;4.23;100.00;93974.34;5087389;28;19946;-73
2024/03/28 08:02:45;;;;;;;;;;;;;;;4.23;100.00;93980.31;5087885;28;19929;-74
2024/03/28 08:05:12;;;;;;;;;;;;;;;4.25;100.00;94000.81;5087708;28;20121;-73
2024/03/28 08:07:39;;;;;;;;;;;;;;;4.21;100.00;93989.34;5087209;28;20155;-71
2024/03/28 08:10:05;;;;;;;;;;;;;;;4.18;100.00;93998.41;5087843;28;19964;-75
2024/03/28 08:12:31;;;;;;;;;;;;;;;4.18;100.00;93997.59;5087596;28;19937;-66
2024/03/28 08:14:56;;;;;;;;;;;;;;;4.16;100.00;94003.03;5086976;28;20129;-66
2024/03/28 08:17:22;;;;;;;;;;;;;;;4.20;100.00;94017.09;5087834;28;20046;-66
2024/03/28 08:19:48;;;;;;;;;;;;;;;4.28;100.00;94018.50;5086966;28;20297;-67
2024/03/28 08:22:16;;;;;;;;;;;;;;;4.40;100.00;94015.81;5086942;28;20111;-66
2024/03/28 08:24:42;;;;;;;;;;;;;;;4.57;100.00;94026.16;5086874;28;19943;-66
2024/03/28 08:27:09;;;;;;;;;;;;;;;4.74;100.00;94052.06;5086761;28;19953;-72
2024/03/28 08:29:35;;;;;;;;;;;;;;;4.87;100.00;94062.91;5086799;28;19938;-66
2024/03/28 08:32:01;;;;;;;;;;;;;;;4.98;100.00;94076.81;5086769;28;19999;-66
2024/03/28 08:34:27;;;;;;;;;;;;;;;5.04;100.00;94081.03;5086667;28;19930;-66
2024/03/28 08:36:53;;;;;;;;;;;;;;;5.09;100.00;94077.72;5087184;28;19980;-65
2024/03/28 08:39:24;;;;;;;;;;;;;;;5.11;100.00;94078.25;5086656;28;19943;-65
2024/03/28 08:41:52;;;;;;;;;;;;;;;5.14;100.00;94076.97;5087333;28;20116;-66
2024/03/28 08:44:21;;;;;;;;;;;;;;;5.20;100.00;94099.41;5087113;28;20111;-65
2024/03/28 08:46:47;;;;;;;;;;;;;;;5.27;100.00;94112.97;5087044;28;20130;-72
2024/03/28 08:49:16;;;;;;;;;;;;;;;5.33;100.00;94095.66;5087228;28;19937;-76
2024/03/28 08:51:42;;;;;;;;;;;;;;;5.38;100.00;94096.50;5086904;28;19941;-76
2024/03/28 08:54:12;;;;;;;;;;;;;;;5.43;100.00;94108.75;5086417;28;20156;-76
2024/03/28 08:56:38;;;;;;;;;;;;;;;5.49;100.00;94110.38;5086404;28;19965;-76
2024/03/28 08:59:04;;;;;;;;;;;;;;;5.52;100.00;94109.88;5087082;28;19950;-76
2024/03/28 09:01:30;;;;;;;;;;;;;;;5.51;100.00;94116.13;5086727;28;19943;-76
2024/03/28 09:03:56;;;;;;;;;;;;;;;5.49;100.00;94128.59;5085675;28;19972;-66
2024/03/28 09:06:23;;;;;;;;;;;;;;;5.50;100.00;94137.94;5086585;28;19936;-75
2024/03/28 09:08:48;;;;;;;;;;;;;;;5.48;100.00;94134.78;5086096;28;19950;-76
2024/03/28 09:11:15;;;;;;;;;;;;;;;5.51;100.00;94138.75;5085627;28;20116;-75
2024/03/28 09:13:41;;;;;;;;;;;;;;;5.53;100.00;94134.88;5086079;28;20216;-75
2024/03/28 09:16:07;;;;;;;;;;;;;;;5.57;100.00;94135.19;5086019;28;19936;-75
2024/03/28 09:18:34;;;;;;;;;;;;;;;5.64;100.00;94151.38;5085888;28;19939;-75
2024/03/28 09:21:00;;;;;;;;;;;;;;;5.69;100.00;94156.59;5085884;28;19937;-75
2024/03/28 09:23:26;;;;;;;;;;;;;;;5.74;100.00;94148.88;5085857;28;19981;-71
2024/03/28 09:25:52;;;;;;;;;;;;;;;5.82;100.00;94150.28;5085779;28;20227;-74
2024/03/28 09:28:18;;;;;;;;;;;;;;;5.86;100.00;94149.53;5086508;28;19952;-74
2024/03/28 09:30:44;;;;;;;;;;;;;;;5.90;100.00;94153.22;5085196;28;20117;-74
2024/03/28 09:33:10;;;;;;;;;;;;;;;5.94;100.00;94145.69;5085628;28;19978;-74
2024/03/28 09:35:36;;;;;;;;;;;;;;;6.01;100.00;94141.13;5086119;28;19933;-74
2024/03/28 09:38:03;;;;;;;;;;;;;;;6.09;100.00;94158.13;5085578;28;20253;-74
2024/03/28 09:40:30;;;;;;;;;;;;;;;6.15;100.00;94162.31;5085543;28;19942;-74
2024/03/28 09:42:57;;;;;;;;;;;;;;;6.19;100.00;94173.78;5085918;28;19941;-66
2024/03/28 09:45:27;;;;;;;;;;;;;;;6.23;100.00;94164.47;5085385;28;19958;-65
2024/03/28 09:47:54;;;;;;;;;;;;;;;6.32;100.00;94182.25;5086301;28;19950;-66
2024/03/28 09:50:22;;;;;;;;;;;;;;;6.38;100.00;94169.03;5085277;28;19939;-66
2024/03/28 09:52:50;;;;;;;;;;;;;;;6.47;100.00;94158.97;5085166;28;20220;-66
2024/03/28 09:55:17;;;;;;;;;;;;;;;6.55;100.00;94165.53;5085173;28;19931;-65
2024/03/28 09:57:43;;;;;;;;;;;;;;;6.66;100.00;94157.53;5084927;28;19963;-65
2024/03/28 10:00:11;;;;;;;;;;;;;;;6.76;100.00;94176.88;5085690;28;20397;-74
2024/03/28 10:02:47;;;;;;;;;;;;;;;6.82;100.00;94139.41;5085604;28;20132;-74
2024/03/28 10:05:13;;;;;;;;;;;;;;;6.93;100.00;94143.66;5085170;28;19943;-74
2024/03/28 10:07:40;;;;;;;;;;;;;;;7.14;100.00;94146.38;5084915;28;19957;-74
2024/03/28 10:10:12;;;;;;;;;;;;;;;7.39;100.00;94130.88;5084785;28;20263;-74
2024/03/28 10:12:38;;;;;;;;;;;;;;;7.71;100.00;94117.69;5085629;28;19927;-74
2024/03/28 10:15:05;;;;;;;;;;;;;;;8.11;100.00;94103.16;5083686;28;19939;-74
2024/03/28 10:17:32;;;;;;;;;;;;;;;8.23;100.00;94091.66;5085239;28;20205;-74
2024/03/28 10:19:59;;;;;;;;;;;;;;;8.24;100.00;94078.34;5084625;28;19937;-75
2024/03/28 10:22:24;;;;;;;;;;;;;;;8.30;100.00;94066.09;5083532;28;19945;-75
2024/03/28 10:24:50;;;;;;;;;;;;;;;8.35;100.00;94066.06;5084596;28;20197;-76
2024/03/28 10:27:20;;;;;;;;;;;;;;;8.43;100.00;94075.25;5083293;28;19960;-75
2024/03/28 10:29:51;;;;;;;;;;;;;;;8.57;100.00;94084.13;5084498;28;19964;-75
2024/03/28 10:32:17;;;;;;;;;;;;;;;8.68;100.00;94084.88;5084399;28;19932;-75
2024/03/28 10:34:47;;;;;;;;;;;;;;;8.77;97.19;94061.63;5084433;28;20225;-75
2024/03/28 10:37:16;;;;;;;;;;;;;;;8.67;94.69;94033.66;5084473;28;20275;-73
2024/03/28 10:39:42;;;;;;;;;;;;;;;8.66;95.00;94051.19;5067232;28;19946;-66
2024/03/28 10:42:08;;;;;;;;;;;;;;;8.61;95.16;94066.06;5084320;28;19937;-66
2024/03/28 10:44:35;;;;;;;;;;;;;;;8.72;96.74;94057.19;5084266;28;19998;-66
2024/03/28 10:47:03;;;;;;;;;;;;;;;8.72;95.07;94047.50;5084148;28;19960;-66
2024/03/28 10:49:51;;;;;;;;;;;;;;;8.90;95.57;94068.88;5084249;28;19937;-66
2024/03/28 10:52:24;;;;;;;;;;;;;;;9.28;95.76;94069.28;5083850;28;19940;-66
2024/03/28 10:54:55;;;;;;;;;;;;;;;9.52;95.40;94067.63;5084108;28;19947;-76
2024/03/28 10:57:22;;;;;;;;;;;;;;;9.71;96.07;94048.69;5082863;28;19978;-76
2024/03/28 10:59:50;;;;;;;;;;;;;;;10.09;94.33;94041.88;5084098;28;19939;-76
2024/03/28 11:02:17;;;;;;;;;;;;;;;10.54;90.45;94015.59;5084048;28;19935;-76
2024/03/28 11:04:43;;;;;;;;;;;;;;;10.96;88.66;94008.88;5084859;28;19939;-76
2024/03/28 11:07:10;;;;;;;;;;;;;;;11.42;85.94;93983.91;5083958;28;19952;-76
2024/03/28 11:09:36;;;;;;;;;;;;;;;11.69;78.58;93960.44;5083969;28;19957;-76
2024/03/28 11:12:02;;;;;;;;;;;;;;;11.86;77.88;93959.91;5084241;28;19930;-76
2024/03/28 11:14:28;;;;;;;;;;;;;;;11.89;75.01;93962.00;5084051;28;20234;-73
2024/03/28 11:17:01;;;;;;;;;;;;;;;11.83;74.91;93972.84;5083948;28;19938;-76
2024/03/28 11:19:27;;;;;;;;;;;;;;;11.64;71.62;93957.13;5083966;28;20248;-76
2024/03/28 11:21:54;;;;;;;;;;;;;;;11.49;71.80;93969.38;5083938;28;19932;-76
2024/03/28 11:24:19;;;;;;;;;;;;;;;11.29;74.90;93998.53;5083881;28;19933;-76
2024/03/28 11:26:56;;;;;;;;;;;;;;;11.16;74.90;94023.59;5085929;28;20071;-75
2024/03/28 11:29:25;;;;;;;;;;;;;;;11.06;77.29;94011.38;5088121;28;19959;-75
2024/03/28 11:31:58;;;;;;;;;;;;;;;10.94;70.89;93993.44;5087968;28;19933;-76
2024/03/28 11:34:27;;;;;;;;;;;;;;;10.89;72.80;94001.34;5087945;28;19937;-70
2024/03/28 11:36:54;;;;;;;;;;;;;;;10.90;71.02;94126.16;5087872;28;19941;-71
2024/03/28 11:39:20;;;;;;;;;;;;;;;10.96;72.63;94153.88;5087837;28;19935;-71
2024/03/28 11:41:46;;;;;;;;;;;;;;;10.83;70.03;94135.38;5087779;28;20228;-71
2024/03/28 11:44:17;;;;;;;;;;;;;;;10.74;73.35;94162.19;5087701;28;19939;-71
2024/03/28 11:46:42;;;;;;;;;;;;;;;10.56;70.73;94166.28;5087670;28;19941;-71
2024/03/28 11:49:08;;;;;;;;;;;;;;;10.61;70.40;94172.53;5087670;28;20130;-76
2024/03/28 11:51:34;;;;;;;;;;;;;;;10.79;69.24;94186.78;5087663;28;20311;-76
2024/03/28 11:54:02;;;;;;;;;;;;;;;10.99;71.34;94183.25;5087090;28;20011;-67
2024/03/28 11:56:28;;;;;;;;;;;;;;;10.93;66.22;94183.25;5087623;28;20252;-67
2024/03/28 11:58:54;;;;;;;;;;;;;;;10.83;66.11;94214.81;5088256;28;19981;-68
2024/03/28 12:01:20;;;;;;;;;;;;;;;10.72;66.48;94221.97;5087373;28;19935;-67
2024/03/28 12:03:47;;;;;;;;;;;;;;;10.66;68.18;94236.16;5087371;28;19993;-67
2024/03/28 12:06:13;;;;;;;;;;;;;;;10.69;68.58;94245.34;5087246;28;19935;-67
2024/03/28 12:08:39;;;;;;;;;;;;;;;10.68;70.26;94243.75;5087139;28;20151;-67
2024/03/28 12:11:06;;;;;;;;;;;;;;;10.60;71.65;94265.28;5087274;28;19942;-72
2024/03/28 12:13:32;;;;;;;;;;;;;;;10.50;71.05;94274.00;5087745;28;19933;-71
2024/03/28 12:15:59;;;;;;;;;;;;;;;10.44;70.93;94262.78;5087127;28;20131;-71
2024/03/28 12:18:26;;;;;;;;;;;;;;;10.39;72.72;94275.09;5087927;28;20112;-71
2024/03/28 12:21:01;;;;;;;;;;;;;;;10.41;67.62;94260.69;5087021;28;19935;-73
2024/03/28 12:23:28;;;;;;;;;;;;;;;10.52;70.10;94267.44;5087087;28;20211;-72
2024/03/28 12:25:54;;;;;;;;;;;;;;;10.75;70.54;94259.94;5087052;28;20124;-75
2024/03/28 12:28:21;;;;;;;;;;;;;;;10.91;67.14;94248.31;5087427;28;19950;-71
2024/03/28 12:30:51;;;;;;;;;;;;;;;10.97;65.55;94241.97;5087229;28;19936;-77
2024/03/28 12:33:17;;;;;;;;;;;;;;;11.11;64.99;94249.22;5086870;28;19937;-77
2024/03/28 12:35:43;;;;;;;;;;;;;;;11.40;65.38;94236.09;5086837;28;20126;-77
2024/03/28 12:38:16;;;;;;;;;;;;;;;11.67;64.85;94237.41;5085662;28;20237;-79
2024/03/28 12:40:43;;;;;;;;;;;;;;;11.86;62.71;94234.84;5085661;28;20139;-78
2024/03/28 12:43:12;;;;;;;;;;;;;;;11.99;62.16;94255.22;5086675;28;19935;-78
2024/03/28 12:45:38;;;;;;;;;;;;;;;12.05;58.05;94251.47;5086596;28;20097;-75
2024/03/28 12:48:06;;;;;;;;;;;;;;;12.03;53.95;94261.47;5086464;28;19972;-71
2024/03/28 12:50:32;;;;;;;;;;;;;;;12.00;55.77;94303.28;5086533;28;19943;-71